Аэропорт: Сургут. Сургут

ICAO: USRR

METAR:
2019-07-23 18:30:00
USRR 231830Z 02004MPS CAVOK 20/15 Q1005 R07/CLRD60 NOSIG RMK QFE749
METAR:
2019-07-23 16:55:00
TAF USRR 231655Z 2318/2418 36004MPS 9999 SCT020 TEMPO 2318/2324 3100 BR SCT011 TEMPO 2406/2412 4000 -SHRA BKN020CB